Time;durP1;ratioP1;P1;durP2;ratioP2;P2;SDS_P1;SDS_P2;PMS_P1;PMS_P2;Temp;Humidity;BMP_temperature;BMP_pressure;BME280_temperature;BME280_humidity;BME280_pressure;Samples;Min_cycle;Max_cycle;Signal;HPM_P1;HPM_P2
2024/01/19 00:00:28;;;;;;;0.10;0.10;;;;;;;-2.72;100.00;95370.19;1023554;28;20183;-70
2024/01/19 00:00:59;;;;;;;0.10;0.10;;;;;;;-2.73;100.00;95372.97;1027739;28;20026;-69
2024/01/19 00:01:29;;;;;;;0.10;0.10;;;;;;;-2.74;100.00;95369.59;1023380;28;20034;-70
2024/01/19 00:01:59;;;;;;;0.10;0.10;;;;;;;-2.74;100.00;95376.53;1027133;28;20027;-69
2024/01/19 00:02:30;;;;;;;0.50;0.50;;;;;;;-2.76;100.00;95368.19;1027532;28;20034;-69
2024/01/19 00:03:00;;;;;;;0.00;0.00;;;;;;;-2.76;100.00;95375.91;1023259;28;20027;-69
2024/01/19 00:03:31;;;;;;;0.03;0.03;;;;;;;-2.77;100.00;95376.91;1023853;28;20039;-70
2024/01/19 00:04:01;;;;;;;0.68;0.68;;;;;;;-2.78;100.00;95376.09;1023499;29;20527;-70
2024/01/19 00:04:32;;;;;;;1.45;1.35;;;;;;;-2.77;100.00;95369.97;1019151;29;20031;-69
2024/01/19 00:05:05;;;;;;;1.52;1.45;;;;;;;-2.81;100.00;95371.34;1019751;29;20397;-68
2024/01/19 00:05:36;;;;;;;0.10;0.10;;;;;;;-2.79;100.00;95374.50;1019329;29;20031;-69
2024/01/19 00:06:07;;;;;;;0.00;0.00;;;;;;;-2.78;100.00;95375.28;1016632;29;20776;-68
2024/01/19 00:06:39;;;;;;;0.55;0.55;;;;;;;-2.77;100.00;95375.13;1023916;28;20294;-69
2024/01/19 00:07:09;;;;;;;0.90;0.90;;;;;;;-2.78;100.00;95370.97;1020078;29;20035;-69
2024/01/19 00:07:40;;;;;;;0.43;0.43;;;;;;;-2.77;100.00;95372.53;1019982;29;20268;-69
2024/01/19 00:08:10;;;;;;;0.47;0.30;;;;;;;-2.77;100.00;95380.25;1022741;28;20031;-69
2024/01/19 00:08:41;;;;;;;3.75;1.55;;;;;;;-2.78;100.00;95376.09;1023527;28;20506;-69
2024/01/19 00:09:11;;;;;;;0.60;0.60;;;;;;;-2.79;100.00;95374.50;1031863;28;20014;-69
2024/01/19 00:09:42;;;;;;;0.40;0.40;;;;;;;-2.77;100.00;95385.38;1029955;28;20021;-69
2024/01/19 00:10:12;;;;;;;0.00;0.00;;;;;;;-2.78;100.00;95378.66;1027216;28;20062;-69
2024/01/19 00:10:43;;;;;;;1.38;1.35;;;;;;;-2.77;100.00;95387.16;1027662;28;20050;-69
2024/01/19 00:11:18;;;;;;;0.68;0.68;;;;;;;-2.81;100.00;95378.25;1023460;29;20020;-69
2024/01/19 00:11:48;;;;;;;0.55;0.55;;;;;;;-2.82;100.00;95384.34;1023656;29;20035;-70
2024/01/19 00:12:19;;;;;;;0.17;0.17;;;;;;;-2.79;100.00;95391.69;1024616;28;20274;-70
2024/01/19 00:12:49;;;;;;;0.80;0.80;;;;;;;-2.77;100.00;95387.94;1032164;28;20470;-70
2024/01/19 00:13:19;;;;;;;0.80;0.43;;;;;;;-2.79;100.00;95384.75;1034613;28;20477;-69
2024/01/19 00:13:50;;;;;;;0.73;0.73;;;;;;;-2.79;100.00;95389.13;1031246;28;20031;-69
2024/01/19 00:14:21;;;;;;;0.35;0.35;;;;;;;-2.81;100.00;95386.75;1027202;28;20110;-70
2024/01/19 00:14:51;;;;;;;0.73;0.73;;;;;;;-2.80;100.00;95392.66;1019399;29;20035;-70
2024/01/19 00:15:21;;;;;;;0.05;0.05;;;;;;;-2.82;100.00;95390.28;1019589;28;20031;-69
2024/01/19 00:15:53;;;;;;;0.93;0.93;;;;;;;-2.85;100.00;95388.06;1027673;28;20081;-69
2024/01/19 00:16:23;;;;;;;0.20;0.20;;;;;;;-2.87;100.00;95393.41;1031476;28;20026;-69
2024/01/19 00:16:54;;;;;;;0.00;0.00;;;;;;;-2.84;100.00;95399.94;1035249;28;20273;-68
2024/01/19 00:17:25;;;;;;;1.80;0.45;;;;;;;-2.89;100.00;95390.22;1035713;28;20096;-69
2024/01/19 00:17:55;;;;;;;0.35;0.35;;;;;;;-2.88;100.00;95396.97;1031184;28;20034;-70
2024/01/19 00:18:26;;;;;;;3.13;1.05;;;;;;;-2.87;100.00;95390.06;1030758;28;20273;-67
2024/01/19 00:18:57;;;;;;;0.90;0.73;;;;;;;-2.88;100.00;95396.97;1031480;28;20026;-70
2024/01/19 00:19:28;;;;;;;0.88;0.88;;;;;;;-2.97;100.00;95374.19;1031237;28;20077;-69
2024/01/19 00:19:59;;;;;;;0.03;0.03;;;;;;;-2.88;100.00;95391.03;1023322;28;20330;-69
2024/01/19 00:20:29;;;;;;;0.20;0.20;;;;;;;-2.88;100.00;95394.41;1023480;28;20027;-68
2024/01/19 00:20:59;;;;;;;0.85;0.85;;;;;;;-2.94;100.00;95397.72;1027077;28;20345;-71
2024/01/19 00:21:30;;;;;;;0.00;0.00;;;;;;;-2.89;100.00;95394.56;1020534;28;20031;-69
2024/01/19 00:22:01;;;;;;;0.38;0.38;;;;;;;-2.99;100.00;95383.84;1023801;28;20027;-69
2024/01/19 00:22:31;;;;;;;0.10;0.10;;;;;;;-2.88;100.00;95403.88;1025160;28;20078;-69
2024/01/19 00:23:01;;;;;;;1.05;0.98;;;;;;;-2.88;100.00;95403.88;1027486;28;20023;-69
2024/01/19 00:23:32;;;;;;;0.55;0.55;;;;;;;-2.89;100.00;95402.28;1032708;28;20410;-69
2024/01/19 00:24:02;;;;;;;0.65;0.65;;;;;;;-2.90;100.00;95398.91;1031487;28;20161;-69
2024/01/19 00:24:33;;;;;;;0.10;0.10;;;;;;;-2.91;100.00;95402.47;1024542;28;20027;-69
2024/01/19 00:25:04;;;;;;;0.75;0.52;;;;;;;-2.90;100.00;95406.63;1025288;28;20049;-70
2024/01/19 00:25:34;;;;;;;1.60;1.23;;;;;;;-2.90;100.00;95404.06;1015650;29;20032;-69
2024/01/19 00:26:05;;;;;;;0.00;0.00;;;;;;;-2.93;100.00;95409.56;1015619;29;20029;-69
2024/01/19 00:26:35;;;;;;;0.15;0.10;;;;;;;-2.94;100.00;95402.84;1023643;28;20023;-69
2024/01/19 00:27:06;;;;;;;0.73;0.73;;;;;;;-2.93;100.00;95413.91;1027527;28;20038;-68
2024/01/19 00:27:36;;;;;;;0.00;0.00;;;;;;;-2.92;100.00;95406.03;1031219;28;20030;-69
2024/01/19 00:28:06;;;;;;;0.30;0.30;;;;;;;-2.92;100.00;95406.03;1031369;28;20057;-69
2024/01/19 00:28:37;;;;;;;0.95;0.73;;;;;;;-2.92;100.00;95416.28;1025063;28;20101;-68
2024/01/19 00:29:07;;;;;;;0.75;0.75;;;;;;;-2.91;100.00;95409.38;1027192;28;20266;-69
2024/01/19 00:29:39;;;;;;;1.02;0.80;;;;;;;-2.90;100.00;95410.97;1027698;28;20084;-69
2024/01/19 00:30:10;;;;;;;0.45;0.45;;;;;;;-2.91;100.00;95411.94;1030450;28;20117;-69
2024/01/19 00:30:41;;;;;;;0.73;0.73;;;;;;;-2.92;100.00;95410.34;1031645;28;20404;-69
2024/01/19 00:31:11;;;;;;;0.10;0.10;;;;;;;-2.92;100.00;95415.47;1035438;28;20283;-69
2024/01/19 00:31:45;;;;;;;0.32;0.32;;;;;;;-2.91;100.00;95414.53;1031108;28;20080;-69
2024/01/19 00:32:15;;;;;;;3.03;1.50;;;;;;;-2.92;100.00;95415.47;1031332;28;20030;-69
2024/01/19 00:32:46;;;;;;;0.35;0.35;;;;;;;-2.92;100.00;95418.88;1031183;28;20289;-69
2024/01/19 00:33:16;;;;;;;0.90;0.90;;;;;;;-2.89;100.00;95423.59;1031583;28;20577;-69
2024/01/19 00:33:47;;;;;;;0.25;0.25;;;;;;;-2.90;100.00;95421.22;1031716;28;20033;-69
2024/01/19 00:34:17;;;;;;;1.65;1.27;;;;;;;-2.92;100.00;95420.63;1027143;28;20046;-69
2024/01/19 00:34:48;;;;;;;0.20;0.20;;;;;;;-2.92;100.00;95425.75;1023199;29;20443;-69
2024/01/19 00:35:18;;;;;;;0.25;0.25;;;;;;;-2.93;100.00;95414.69;1021464;28;20031;-69
2024/01/19 00:35:49;;;;;;;0.03;0.03;;;;;;;-2.91;100.00;95424.78;1027258;28;20039;-69
2024/01/19 00:36:19;;;;;;;1.58;1.48;;;;;;;-2.91;100.00;95427.34;1031348;28;20061;-69
2024/01/19 00:36:50;;;;;;;0.45;0.45;;;;;;;-2.94;100.00;95413.13;1030812;28;20113;-70
2024/01/19 00:37:20;;;;;;;1.85;0.98;;;;;;;-2.95;100.00;95421.81;1031079;28;20045;-71
2024/01/19 00:37:50;;;;;;;0.30;0.30;;;;;;;-2.90;100.00;95418.66;1027320;28;20038;-69
2024/01/19 00:38:21;;;;;;;0.20;0.20;;;;;;;-2.91;100.00;95427.34;1026671;28;20034;-69
2024/01/19 00:38:52;;;;;;;0.10;0.10;;;;;;;-2.91;100.00;95427.34;1026984;28;20430;-70
2024/01/19 00:39:22;;;;;;;0.30;0.30;;;;;;;-2.92;100.00;95420.63;1023420;28;20403;-69
2024/01/19 00:39:53;;;;;;;1.05;1.00;;;;;;;-2.91;100.00;95427.34;1023105;29;20769;-69
2024/01/19 00:40:24;;;;;;;0.30;0.30;;;;;;;-2.92;100.00;95430.88;1023544;28;20099;-70
2024/01/19 00:40:54;;;;;;;0.90;0.85;;;;;;;-2.92;100.00;95424.00;1031426;28;20046;-69
2024/01/19 00:41:26;;;;;;;0.38;0.38;;;;;;;-2.91;100.00;95428.16;1031204;28;20272;-70
2024/01/19 00:41:57;;;;;;;0.30;0.30;;;;;;;-2.92;100.00;95430.88;1031359;28;20377;-69
2024/01/19 00:42:27;;;;;;;0.00;0.00;;;;;;;-2.91;100.00;95429.91;1023668;29;20270;-69
2024/01/19 00:42:57;;;;;;;0.00;0.00;;;;;;;-2.93;100.00;95429.31;1026780;28;20572;-69
2024/01/19 00:43:28;;;;;;;0.32;0.32;;;;;;;-2.98;100.00;95421.38;1027597;28;20033;-70
2024/01/19 00:43:58;;;;;;;1.00;0.70;;;;;;;-2.95;100.00;95431.25;1026995;28;20042;-69
2024/01/19 00:44:29;;;;;;;9.45;3.60;;;;;;;-2.93;100.00;95429.31;1023544;29;20055;-69
2024/01/19 00:44:59;;;;;;;0.00;0.00;;;;;;;-2.93;100.00;95432.66;1015402;29;20040;-69
2024/01/19 00:45:30;;;;;;;1.95;1.02;;;;;;;-3.13;100.00;95404.28;1021312;28;20546;-70
2024/01/19 00:46:03;;;;;;;0.45;0.45;;;;;;;-2.92;100.00;95425.75;1031575;28;20034;-69
2024/01/19 00:46:33;;;;;;;0.45;0.45;;;;;;;-2.95;100.00;95428.69;1031569;28;20037;-70
2024/01/19 00:47:04;;;;;;;0.00;0.00;;;;;;;-2.99;100.00;95425.69;1031055;28;20265;-71
2024/01/19 00:47:35;;;;;;;0.13;0.13;;;;;;;-2.99;100.00;95430.03;1027428;28;20046;-69
2024/01/19 00:48:05;;;;;;;0.52;0.52;;;;;;;-2.92;100.00;95433.44;1026929;28;20034;-69
2024/01/19 00:48:36;;;;;;;0.52;0.52;;;;;;;-2.94;100.00;95427.72;1023306;28;20031;-68
2024/01/19 00:49:06;;;;;;;1.77;0.98;;;;;;;-2.91;100.00;95430.72;1030485;28;20110;-70
2024/01/19 00:49:37;;;;;;;0.30;0.30;;;;;;;-2.94;100.00;95435.41;1031188;28;20027;-68
2024/01/19 00:50:08;;;;;;;0.85;0.73;;;;;;;-2.94;100.00;95433.66;1023266;28;20015;-69
2024/01/19 00:50:38;;;;;;;0.10;0.10;;;;;;;-2.95;100.00;95428.69;1019388;29;20028;-70
2024/01/19 00:51:09;;;;;;;5.35;1.30;;;;;;;-3.05;100.00;95415.38;1019281;29;20264;-69
2024/01/19 00:51:39;;;;;;;0.13;0.13;;;;;;;-2.94;100.00;95430.28;1015809;29;20031;-69
2024/01/19 00:52:10;;;;;;;0.15;0.15;;;;;;;-2.95;100.00;95436.38;1015023;29;20026;-69
2024/01/19 00:52:40;;;;;;;0.28;0.28;;;;;;;-2.94;100.00;95436.22;1015538;29;20507;-71
2024/01/19 00:53:10;;;;;;;0.45;0.45;;;;;;;-2.94;100.00;95435.41;1019186;28;20444;-70
2024/01/19 00:53:41;;;;;;;1.48;1.38;;;;;;;-2.95;100.00;95439.75;1027168;28;20019;-70
2024/01/19 00:54:13;;;;;;;0.45;0.45;;;;;;;-2.92;100.00;95439.41;1031324;28;20022;-69
2024/01/19 00:54:44;;;;;;;0.85;0.47;;;;;;;-2.96;100.00;95439.94;1019111;29;20051;-69
2024/01/19 00:55:14;;;;;;;3.00;2.08;;;;;;;-2.96;100.00;95440.72;1015314;29;20776;-70
2024/01/19 00:55:44;;;;;;;0.45;0.45;;;;;;;-2.96;100.00;95438.16;1019406;29;20050;-69
2024/01/19 00:56:17;;;;;;;2.28;2.17;;;;;;;-2.95;100.00;95441.50;1019021;29;20103;-69
2024/01/19 00:56:47;;;;;;;0.50;0.50;;;;;;;-2.98;100.00;95436.78;1019737;29;20171;-69
2024/01/19 00:57:18;;;;;;;0.47;0.47;;;;;;;-2.97;100.00;95441.72;1023798;28;20255;-69
2024/01/19 00:57:48;;;;;;;0.10;0.10;;;;;;;-2.97;100.00;95444.28;1031283;28;20022;-69
2024/01/19 00:58:19;;;;;;;0.50;0.50;;;;;;;-2.96;100.00;95439.94;1034657;28;20125;-69
2024/01/19 00:58:49;;;;;;;0.15;0.15;;;;;;;-2.95;100.00;95442.34;1035165;28;20440;-69
2024/01/19 00:59:20;;;;;;;0.17;0.17;;;;;;;-2.99;100.00;95437.75;1035170;28;20025;-69
2024/01/19 00:59:50;;;;;;;0.30;0.30;;;;;;;-3.01;100.00;95442.28;1027303;28;20031;-69
2024/01/19 01:00:21;;;;;;;0.40;0.40;;;;;;;-3.00;100.00;95444.66;1022937;29;20024;-69
2024/01/19 01:00:51;;;;;;;0.73;0.73;;;;;;;-3.00;100.00;95446.41;1019354;29;20031;-69
2024/01/19 01:01:22;;;;;;;0.80;0.63;;;;;;;-3.00;100.00;95449.00;1019296;28;20075;-69
2024/01/19 01:01:52;;;;;;;0.43;0.30;;;;;;;-3.01;100.00;95442.28;1019386;29;20373;-71
2024/01/19 01:02:27;;;;;;;1.35;1.25;;;;;;;-3.02;100.00;95445.81;1019330;29;20023;-69
2024/01/19 01:02:57;;;;;;;0.10;0.10;;;;;;;-3.01;100.00;95444.84;1020833;28;20518;-69
2024/01/19 01:03:28;;;;;;;0.00;0.00;;;;;;;-3.10;100.00;95439.81;1023670;28;20282;-69
2024/01/19 01:03:58;;;;;;;0.90;0.90;;;;;;;-3.05;100.00;95446.16;1020007;29;20477;-71
2024/01/19 01:04:29;;;;;;;0.85;0.85;;;;;;;-3.04;100.00;95447.78;1027062;28;20525;-69
2024/01/19 01:05:00;;;;;;;0.17;0.17;;;;;;;-3.05;100.00;95448.75;1023194;29;20109;-69
2024/01/19 01:05:30;;;;;;;1.80;1.70;;;;;;;-3.06;100.00;95444.59;1023131;28;20019;-71
2024/01/19 01:06:01;;;;;;;0.10;0.10;;;;;;;-3.03;100.00;95457.06;1023334;28;20030;-69
2024/01/19 01:06:31;;;;;;;0.95;0.57;;;;;;;-3.16;100.00;95445.69;1027091;28;20018;-70
2024/01/19 01:07:02;;;;;;;2.20;0.98;;;;;;;-3.09;100.00;95456.81;1031168;28;20018;-70
2024/01/19 01:07:32;;;;;;;0.22;0.08;;;;;;;-3.06;100.00;95450.50;1027063;28;20019;-70
2024/01/19 01:08:03;;;;;;;1.10;0.55;;;;;;;-3.05;100.00;95457.25;1023233;29;20011;-70
2024/01/19 01:08:34;;;;;;;0.22;0.22;;;;;;;-3.04;100.00;95453.69;1022632;28;20110;-69
2024/01/19 01:09:05;;;;;;;0.47;0.47;;;;;;;-3.05;100.00;95451.31;1027572;28;20077;-69
2024/01/19 01:09:36;;;;;;;0.57;0.57;;;;;;;-3.09;100.00;95459.38;1023029;29;20337;-69
2024/01/19 01:10:07;;;;;;;0.00;0.00;;;;;;;-3.08;100.00;95458.41;1019212;29;20505;-69
2024/01/19 01:10:37;;;;;;;0.55;0.15;;;;;;;-3.09;100.00;95459.38;1020005;28;20114;-69
2024/01/19 01:11:08;;;;;;;0.03;0.03;;;;;;;-3.09;100.00;95456.81;1023346;28;20801;-70
2024/01/19 01:11:38;;;;;;;0.85;0.85;;;;;;;-3.12;100.00;95451.25;1031135;28;20037;-69
2024/01/19 01:12:08;;;;;;;0.90;0.85;;;;;;;-3.09;100.00;95461.94;1031362;28;20030;-71
2024/01/19 01:12:39;;;;;;;0.20;0.20;;;;;;;-3.13;100.00;95455.59;1027188;28;20592;-69
2024/01/19 01:13:09;;;;;;;0.52;0.52;;;;;;;-3.10;100.00;95460.34;1031204;28;20030;-69
2024/01/19 01:13:40;;;;;;;0.40;0.40;;;;;;;-3.09;100.00;95466.28;1031115;28;20069;-69
2024/01/19 01:14:10;;;;;;;1.45;0.60;;;;;;;-3.12;100.00;95464.06;1031208;28;20027;-70
2024/01/19 01:14:41;;;;;;;0.40;0.40;;;;;;;-3.13;100.00;95460.72;1035355;28;20544;-69
2024/01/19 01:15:11;;;;;;;0.30;0.30;;;;;;;-3.15;100.00;95465.25;1031090;28;20026;-70
2024/01/19 01:15:42;;;;;;;1.55;1.45;;;;;;;-3.13;100.00;95470.19;1031169;28;20114;-70
2024/01/19 01:16:12;;;;;;;1.00;0.68;;;;;;;-3.17;100.00;95469.75;1027289;28;20042;-69
2024/01/19 01:16:43;;;;;;;0.63;0.55;;;;;;;-3.16;100.00;95476.47;1023125;28;20623;-69
2024/01/19 01:17:13;;;;;;;0.30;0.30;;;;;;;-3.13;100.00;95480.47;1027201;28;20030;-69
2024/01/19 01:17:44;;;;;;;0.47;0.47;;;;;;;-3.14;100.00;95477.09;1027233;28;20513;-68
2024/01/19 01:18:16;;;;;;;0.40;0.40;;;;;;;-3.17;100.00;95480.03;1026498;28;20031;-69
2024/01/19 01:18:47;;;;;;;0.47;0.47;;;;;;;-3.16;100.00;95489.31;1023463;29;20027;-70
2024/01/19 01:19:17;;;;;;;0.45;0.45;;;;;;;-3.14;100.00;95489.13;1023200;28;20294;-69
2024/01/19 01:19:47;;;;;;;1.08;1.05;;;;;;;-3.16;100.00;95484.19;1015830;29;20201;-70
2024/01/19 01:20:20;;;;;;;0.77;0.77;;;;;;;-3.13;100.00;95486.38;1019697;29;20628;-69
2024/01/19 01:20:50;;;;;;;0.95;0.88;;;;;;;-3.17;100.00;95480.03;1019220;29;20031;-70
2024/01/19 01:21:21;;;;;;;3.60;0.50;;;;;;;-3.19;100.00;95487.09;1015887;29;20640;-69
2024/01/19 01:21:51;;;;;;;2.08;1.58;;;;;;;-3.19;100.00;95484.53;1026258;28;20435;-69
2024/01/19 01:22:22;;;;;;;1.48;1.42;;;;;;;-3.19;100.00;95487.09;1022965;28;20031;-69
2024/01/19 01:22:53;;;;;;;0.30;0.30;;;;;;;-3.18;100.00;95488.72;1027554;28;20027;-70
2024/01/19 01:23:24;;;;;;;0.38;0.38;;;;;;;-3.15;100.00;95487.56;1026858;28;20035;-69
2024/01/19 01:23:54;;;;;;;0.08;0.08;;;;;;;-3.17;100.00;95489.50;1027087;28;20118;-70
2024/01/19 01:24:25;;;;;;;0.63;0.63;;;;;;;-3.18;100.00;95486.16;1027347;28;20479;-69
2024/01/19 01:24:55;;;;;;;1.05;0.70;;;;;;;-3.19;100.00;95486.31;1022903;28;20095;-69
2024/01/19 01:25:25;;;;;;;0.52;0.52;;;;;;;-3.14;100.00;95484.81;1019438;29;20111;-70
2024/01/19 01:25:56;;;;;;;0.13;0.13;;;;;;;-3.15;100.00;95483.22;1023219;28;20031;-68
2024/01/19 01:26:26;;;;;;;0.00;0.00;;;;;;;-3.18;100.00;95488.72;1018977;29;20032;-69
2024/01/19 01:26:57;;;;;;;0.63;0.63;;;;;;;-3.18;100.00;95496.41;1020115;29;20031;-70
2024/01/19 01:27:27;;;;;;;1.33;1.33;;;;;;;-3.15;100.00;95490.91;1023020;28;20099;-69
2024/01/19 01:27:58;;;;;;;0.15;0.15;;;;;;;-3.17;100.00;95490.28;1027250;28;20014;-69
2024/01/19 01:28:28;;;;;;;0.57;0.38;;;;;;;-3.18;100.00;95496.41;1030595;28;20532;-69
2024/01/19 01:28:59;;;;;;;1.33;0.80;;;;;;;-3.18;100.00;95491.28;1027036;28;20026;-70
2024/01/19 01:29:29;;;;;;;0.10;0.10;;;;;;;-3.21;100.00;95489.06;1026987;28;20510;-70
2024/01/19 01:30:05;;;;;;;1.45;1.15;;;;;;;-3.20;100.00;95495.00;1023794;28;20015;-69
2024/01/19 01:30:35;;;;;;;0.63;0.63;;;;;;;-3.22;100.00;95491.81;1031894;28;20061;-69
2024/01/19 01:31:06;;;;;;;0.88;0.88;;;;;;;-3.20;100.00;95490.66;1031330;28;20292;-69
2024/01/19 01:31:36;;;;;;;0.80;0.55;;;;;;;-3.18;100.00;95493.84;1030286;28;20533;-68
2024/01/19 01:32:07;;;;;;;0.03;0.03;;;;;;;-3.23;100.00;95488.44;1026988;28;20015;-71
2024/01/19 01:32:37;;;;;;;1.25;1.17;;;;;;;-3.24;100.00;95488.66;1027027;28;20087;-69
2024/01/19 01:33:08;;;;;;;0.13;0.13;;;;;;;-3.20;100.00;95500.13;1027141;28;20054;-69
2024/01/19 01:33:39;;;;;;;0.47;0.47;;;;;;;-3.23;100.00;95498.72;1022988;29;20011;-69
2024/01/19 01:34:09;;;;;;;0.10;0.10;;;;;;;-3.19;100.00;95499.94;1023010;29;20500;-69
2024/01/19 01:34:40;;;;;;;0.10;0.10;;;;;;;-3.21;100.00;95504.47;1019169;29;20055;-69
2024/01/19 01:35:10;;;;;;;0.30;0.30;;;;;;;-3.22;100.00;95502.88;1027288;28;20042;-69
2024/01/19 01:35:41;;;;;;;0.55;0.55;;;;;;;-3.21;100.00;95507.03;1030889;28;20541;-69
2024/01/19 01:36:11;;;;;;;1.60;0.95;;;;;;;-3.21;100.00;95508.81;1027215;28;20026;-70
2024/01/19 01:36:42;;;;;;;0.63;0.63;;;;;;;-3.23;100.00;95511.53;1023528;28;20123;-69
2024/01/19 01:37:12;;;;;;;1.67;1.58;;;;;;;-3.22;100.00;95517.47;1023757;28;20015;-69
2024/01/19 01:37:43;;;;;;;0.15;0.15;;;;;;;-3.22;100.00;95515.72;1027109;28;20027;-69
2024/01/19 01:38:13;;;;;;;0.20;0.20;;;;;;;-3.24;100.00;95520.22;1025511;28;20197;-70
2024/01/19 01:38:43;;;;;;;1.00;0.60;;;;;;;-3.23;100.00;95521.81;1026518;28;20022;-68
2024/01/19 01:39:14;;;;;;;0.65;0.65;;;;;;;-3.22;100.00;95515.72;1023241;29;20011;-70
2024/01/19 01:39:44;;;;;;;0.65;0.65;;;;;;;-3.19;100.00;95517.09;1022795;28;20031;-69
2024/01/19 01:40:15;;;;;;;1.20;1.10;;;;;;;-3.22;100.00;95517.47;1022983;29;20027;-69
2024/01/19 01:40:45;;;;;;;0.85;0.85;;;;;;;-3.22;100.00;95525.16;1023392;28;20019;-69
2024/01/19 01:41:16;;;;;;;0.32;0.32;;;;;;;-3.23;100.00;95521.81;1022785;28;20059;-69
2024/01/19 01:41:48;;;;;;;0.10;0.10;;;;;;;-3.24;100.00;95525.34;1027263;28;20026;-69
2024/01/19 01:42:18;;;;;;;0.40;0.40;;;;;;;-3.23;100.00;95526.94;1030792;28;20640;-69
2024/01/19 01:42:49;;;;;;;0.45;0.45;;;;;;;-3.23;100.00;95526.16;1027054;28;20313;-69
2024/01/19 01:43:23;;;;;;;0.30;0.30;;;;;;;-3.20;100.00;95525.78;1031441;28;20019;-69
2024/01/19 01:43:54;;;;;;;0.47;0.47;;;;;;;-3.22;100.00;95522.59;1029412;28;20175;-69
2024/01/19 01:44:24;;;;;;;2.92;1.48;;;;;;;-3.25;100.00;95534.03;1027401;28;20334;-69
2024/01/19 01:44:55;;;;;;;0.03;0.03;;;;;;;-3.24;100.00;95529.69;1026903;28;20026;-69
2024/01/19 01:45:25;;;;;;;0.95;0.32;;;;;;;-3.23;100.00;95536.41;1024312;28;20023;-71
2024/01/19 01:45:56;;;;;;;1.23;1.13;;;;;;;-3.26;100.00;95529.88;1027197;28;20073;-70
2024/01/19 01:46:26;;;;;;;0.43;0.43;;;;;;;-3.25;100.00;95533.22;1023084;29;20019;-67
2024/01/19 01:46:56;;;;;;;0.90;0.77;;;;;;;-3.24;100.00;95540.75;1019021;29;20706;-68
2024/01/19 01:47:27;;;;;;;0.45;0.45;;;;;;;-3.25;100.00;95536.59;1023359;28;20078;-69
2024/01/19 01:47:58;;;;;;;0.20;0.20;;;;;;;-3.26;100.00;95542.69;1022961;28;20111;-69
2024/01/19 01:48:29;;;;;;;2.28;1.05;;;;;;;-3.24;100.00;95537.41;1026757;28;20038;-72
2024/01/19 01:48:59;;;;;;;0.60;0.60;;;;;;;-3.27;100.00;95535.97;1029476;28;20828;-70
2024/01/19 01:49:30;;;;;;;0.10;0.10;;;;;;;-3.32;100.00;95533.16;1027008;28;20277;-69
2024/01/19 01:50:00;;;;;;;0.45;0.45;;;;;;;-3.33;100.00;95531.56;1023201;29;20387;-69
2024/01/19 01:50:31;;;;;;;0.10;0.10;;;;;;;-3.28;100.00;95538.75;1019918;29;20027;-69
2024/01/19 01:51:01;;;;;;;1.02;1.00;;;;;;;-3.29;100.00;95539.69;1022955;28;20026;-70
2024/01/19 01:51:33;;;;;;;0.43;0.43;;;;;;;-3.28;100.00;95543.88;1019528;29;20038;-70
2024/01/19 01:52:03;;;;;;;0.70;0.70;;;;;;;-3.32;100.00;95545.97;1023016;28;20091;-70
2024/01/19 01:52:34;;;;;;;0.50;0.50;;;;;;;-3.32;100.00;95538.28;1023018;29;20635;-70
2024/01/19 01:53:04;;;;;;;0.38;0.38;;;;;;;-3.32;100.00;95538.28;1019048;29;20032;-68
2024/01/19 01:53:35;;;;;;;0.47;0.47;;;;;;;-3.32;100.00;95544.22;1019049;29;20024;-69
2024/01/19 01:54:07;;;;;;;0.93;0.90;;;;;;;-3.32;100.00;95543.41;1023195;28;20726;-69
2024/01/19 01:54:37;;;;;;;1.55;1.45;;;;;;;-3.28;100.00;95549.78;1022819;29;20027;-69
2024/01/19 01:55:08;;;;;;;5.47;2.40;;;;;;;-3.30;100.00;95550.94;1019134;29;20263;-70
2024/01/19 01:55:38;;;;;;;0.10;0.10;;;;;;;-3.33;100.00;95549.53;1023391;28;20098;-70
2024/01/19 01:56:08;;;;;;;0.43;0.43;;;;;;;-3.33;100.00;95544.38;1032535;28;20030;-70
2024/01/19 01:56:40;;;;;;;1.00;1.00;;;;;;;-3.34;100.00;95550.50;1023125;29;20031;-71
2024/01/19 01:57:11;;;;;;;1.30;1.23;;;;;;;-3.36;100.00;95548.09;1023210;28;20510;-69
2024/01/19 01:57:42;;;;;;;1.15;0.77;;;;;;;-3.39;100.00;95543.34;1018982;29;20579;-67
2024/01/19 01:58:13;;;;;;;1.40;0.80;;;;;;;-3.39;100.00;95553.59;1014757;29;20512;-69
2024/01/19 01:58:43;;;;;;;0.20;0.20;;;;;;;-3.35;100.00;95543.78;1014954;29;20171;-68
2024/01/19 01:59:14;;;;;;;1.17;1.17;;;;;;;-3.37;100.00;95548.28;1019037;29;20365;-69
2024/01/19 01:59:44;;;;;;;0.05;0.05;;;;;;;-3.39;100.00;95543.34;1022421;28;20031;-69
2024/01/19 02:00:15;;;;;;;0.88;0.38;;;;;;;-3.43;100.00;95547.25;1019203;29;20039;-69
2024/01/19 02:00:45;;;;;;;1.17;0.90;;;;;;;-3.40;100.00;95546.09;1022966;28;20031;-69
2024/01/19 02:01:16;;;;;;;0.85;0.82;;;;;;;-3.39;100.00;95548.47;1024610;28;20037;-69
2024/01/19 02:01:46;;;;;;;0.40;0.40;;;;;;;-3.41;100.00;95542.75;1026701;28;20034;-70
2024/01/19 02:02:17;;;;;;;0.22;0.22;;;;;;;-3.41;100.00;95541.94;1027229;28;20698;-69
2024/01/19 02:02:48;;;;;;;0.22;0.22;;;;;;;-3.40;100.00;95543.53;1027030;28;20037;-69
2024/01/19 02:03:18;;;;;;;0.43;0.43;;;;;;;-3.40;100.00;95546.88;1030931;28;20027;-69
2024/01/19 02:03:49;;;;;;;0.10;0.10;;;;;;;-3.41;100.00;95547.88;1027145;28;20054;-68
2024/01/19 02:04:19;;;;;;;1.00;1.00;;;;;;;-3.46;100.00;95545.03;1026926;28;20031;-69
2024/01/19 02:04:50;;;;;;;0.00;0.00;;;;;;;-3.39;100.00;95553.59;1027720;28;20376;-71
2024/01/19 02:05:20;;;;;;;0.10;0.10;;;;;;;-3.43;100.00;95549.00;1023243;29;20035;-70
2024/01/19 02:05:51;;;;;;;0.15;0.15;;;;;;;-3.44;100.00;95550.78;1023147;29;20038;-69
2024/01/19 02:06:21;;;;;;;0.00;0.00;;;;;;;-3.45;100.00;95551.78;1023512;28;20023;-69
2024/01/19 02:06:52;;;;;;;1.40;1.20;;;;;;;-3.46;100.00;95557.84;1022945;28;20043;-70
2024/01/19 02:07:22;;;;;;;0.85;0.85;;;;;;;-3.46;100.00;95562.97;1015228;29;20028;-71
2024/01/19 02:07:53;;;;;;;0.77;0.77;;;;;;;-3.45;100.00;95561.25;1019486;29;20039;-69
2024/01/19 02:08:23;;;;;;;2.72;0.75;;;;;;;-3.46;100.00;95562.19;1022405;29;20627;-69
2024/01/19 02:08:54;;;;;;;0.28;0.28;;;;;;;-3.48;100.00;95556.47;1022244;28;20027;-70
2024/01/19 02:09:24;;;;;;;1.30;1.20;;;;;;;-3.47;100.00;95560.59;1022782;29;20518;-69
2024/01/19 02:09:55;;;;;;;0.10;0.10;;;;;;;-3.51;100.00;95559.38;1020124;29;20035;-69
2024/01/19 02:10:26;;;;;;;1.00;0.47;;;;;;;-3.48;100.00;95564.94;1019741;29;20035;-69
2024/01/19 02:10:56;;;;;;;0.10;0.10;;;;;;;-3.49;100.00;95557.41;1019015;29;20027;-69
2024/01/19 02:11:27;;;;;;;0.35;0.35;;;;;;;-3.51;100.00;95560.19;1022668;28;20038;-70
2024/01/19 02:11:57;;;;;;;0.43;0.40;;;;;;;-3.53;100.00;95562.13;1027300;28;20035;-69
2024/01/19 02:12:28;;;;;;;0.28;0.28;;;;;;;-3.56;100.00;95554.78;1027181;28;20653;-69
2024/01/19 02:12:58;;;;;;;0.47;0.47;;;;;;;-3.50;100.00;95563.53;1027939;28;20030;-69
2024/01/19 02:13:29;;;;;;;0.38;0.38;;;;;;;-3.54;100.00;95555.41;1023324;29;20023;-69
2024/01/19 02:13:59;;;;;;;1.67;1.35;;;;;;;-3.53;100.00;95559.53;1019027;29;20028;-69
2024/01/19 02:14:30;;;;;;;0.32;0.32;;;;;;;-3.54;100.00;95565.66;1018593;29;20043;-71
2024/01/19 02:15:00;;;;;;;0.13;0.13;;;;;;;-3.54;100.00;95559.75;1024174;28;20036;-71
2024/01/19 02:15:33;;;;;;;0.93;0.60;;;;;;;-3.52;100.00;95562.91;1022931;29;20031;-69
2024/01/19 02:16:03;;;;;;;1.08;0.73;;;;;;;-3.54;100.00;95572.56;1023394;29;20059;-70
2024/01/19 02:16:34;;;;;;;0.15;0.15;;;;;;;-3.57;100.00;95569.38;1027379;28;20349;-70
2024/01/19 02:17:04;;;;;;;0.32;0.25;;;;;;;-3.63;100.00;95562.38;1031725;28;20054;-72
2024/01/19 02:17:35;;;;;;;1.10;0.95;;;;;;;-3.57;100.00;95569.38;1035010;28;20037;-71
2024/01/19 02:18:05;;;;;;;1.13;0.22;;;;;;;-3.57;100.00;95571.94;1038801;28;20034;-70
2024/01/19 02:18:36;;;;;;;2.95;1.02;;;;;;;-3.61;100.00;95569.91;1034045;28;20109;-71
2024/01/19 02:19:06;;;;;;;0.73;0.73;;;;;;;-3.57;100.00;95578.84;1035209;28;20084;-71
2024/01/19 02:19:37;;;;;;;0.85;0.85;;;;;;;-3.56;100.00;95573.50;1038513;28;20049;-71
2024/01/19 02:20:08;;;;;;;0.45;0.45;;;;;;;-3.57;100.00;95578.84;1033879;28;20022;-70
2024/01/19 02:20:38;;;;;;;0.75;0.75;;;;;;;-3.58;100.00;95580.59;1035119;28;20034;-71
2024/01/19 02:21:08;;;;;;;0.90;0.90;;;;;;;-3.59;100.00;95584.16;1030733;28;20023;-70
2024/01/19 02:21:39;;;;;;;0.82;0.82;;;;;;;-3.63;100.00;95582.91;1030260;28;20026;-70
2024/01/19 02:22:09;;;;;;;0.40;0.40;;;;;;;-3.63;100.00;95580.34;1030328;28;20278;-69
2024/01/19 02:22:40;;;;;;;0.10;0.10;;;;;;;-3.64;100.00;95585.66;1026145;29;20034;-68